Emporia Municipal Airport

About

Name: Emporia Municipal Airport
Identifier:  EMP/KEMP
Serves:  Emporia, Kansas
Owner:  City of Emporia
Public/Private:  Public
Local Time:  26. Jan 22:47 CST
Description: Emporia Municipal Airport is a city-owned public-use airport, located five miles south of Emporia, in Lyon County, Kansas.
Source: Wikipedia

Location

Emporia Municipal Airport

Runways
Identifier Length (m/ft) Surface
1-19 1,524/5,000 Asphalt
6-24 1,181/4,000 Turf

Statistics

Flights Per Day:
0 Flights
Distance: 164km (102mi)
Flights Delayed:
50% (0 Flights/Day Delayed)
Average Delay: 16 minutes

Current Weather

 3 C (Humidity: 74%)
  5kt (9km/h / 5mph) from 220°
  16km (10 mi.)
 METAR KEMP 270353Z AUTO 22005KT 10SM CLR 03/M01 A2998 RMK AO2 SLP162 T00331006

Claim Compensation

Claim compensation for your flight delay or cancellation
Flight delays happen, but that doesn’t mean you have to accept them. You may be entitled to as much as €600/$700 in compensation if your flight has been delayed, canceled or overbooked within the last three years.

Current Delays

Departures

N/A

Arrivals

N/A

Destinations

Map

Top Destinations

Airport Flights
per week
Seats
per week
  Kansas City (MKC) 0 - 0 0

Airlines & Planes

Top Airlines

Airline Flights
per day
Seats
per day
Executive Flight Services 0 -

Top Models

model Flights seats
Embraer Phenom 300 0.1/day - 0